LZN weather

Matsu Nangan Airport
Nangang Island, Lienchiang County, Taiwan

Public forecast

Using degrees Celsius for public forecast. Weather courtesy of forecast.io.

Closest aviation weather report (METAR) to Matsu Nangan Airport

Closest report is Fuzhou Changle International Airport, 20.9 nm (38.6 km) SW. Retrieved 2019/12/06 05:00 UTC (25 minutes ago):

ZSFZ 060500Z 36005MPS 330V030 9999 -RA BKN030 11/07 Q1027 NOSIG

Aviation forecast (TAF) for Matsu Nangan Airport

Retrieved 2019-12-06 00:40 UTC (5 hours ago):

TAF RCFG 052300Z 0600/0618 35020G32KT 6000 -RA FEW010 BKN018 TEMPO 0600/0606 3600 RA FEW005 BKN011 TEMPO 0606/0612 9999 FEW016 BKN032